createdAt,value
2019-05-13T00:01:00.280Z,8.20
2019-05-13T00:03:04.729Z,8.20
2019-05-13T00:05:09.148Z,8.20
2019-05-13T00:07:13.551Z,8.10
2019-05-13T00:09:18.054Z,8.10
2019-05-13T00:11:23.967Z,8.00
2019-05-13T00:13:28.536Z,8.00
2019-05-13T00:15:34.244Z,8.00
2019-05-13T00:17:39.630Z,8.00
2019-05-13T00:19:44.332Z,8.00
2019-05-13T00:21:48.948Z,8.00
2019-05-13T00:23:53.574Z,7.80
2019-05-13T00:25:58.122Z,7.80
2019-05-13T00:28:04.027Z,7.80
2019-05-13T00:30:08.976Z,7.80
2019-05-13T00:32:13.576Z,7.70
2019-05-13T00:34:17.934Z,7.70
2019-05-13T00:36:24.320Z,7.70
2019-05-13T00:38:28.388Z,7.70
2019-05-13T00:40:33.688Z,7.60
2019-05-13T00:42:38.486Z,7.60
2019-05-13T00:44:44.324Z,7.50
2019-05-13T00:46:49.348Z,7.50
2019-05-13T00:48:54.207Z,7.50
2019-05-13T00:50:58.616Z,7.50
2019-05-13T00:53:04.432Z,7.40
2019-05-13T00:55:10.365Z,7.40
2019-05-13T00:57:14.774Z,7.40
2019-05-13T00:59:19.104Z,7.30
2019-05-13T01:01:24.398Z,7.30
2019-05-13T01:03:28.787Z,7.30
2019-05-13T01:05:33.971Z,7.30
2019-05-13T01:07:38.619Z,7.20
2019-05-13T01:09:44.620Z,7.20
2019-05-13T01:11:49.613Z,7.10
2019-05-13T01:13:53.960Z,7.10
2019-05-13T01:15:58.680Z,7.00
2019-05-13T01:18:03.959Z,7.00
2019-05-13T01:20:09.031Z,7.00
2019-05-13T01:22:13.626Z,7.00
2019-05-13T01:24:17.949Z,7.00
2019-05-13T01:26:23.270Z,6.90
2019-05-13T01:28:28.102Z,6.90
2019-05-13T01:30:34.583Z,6.90
2019-05-13T01:32:39.147Z,6.90
2019-05-13T01:34:44.309Z,6.90
2019-05-13T01:36:48.768Z,6.90
2019-05-13T01:38:54.090Z,6.80
2019-05-13T01:40:59.029Z,6.80
2019-05-13T01:43:03.741Z,6.80
2019-05-13T01:45:08.503Z,6.80
2019-05-13T01:47:13.511Z,6.80
2019-05-13T01:49:18.707Z,6.80
2019-05-13T01:51:23.982Z,6.80
2019-05-13T01:53:28.913Z,6.70
2019-05-13T01:55:34.189Z,6.70
2019-05-13T01:57:38.803Z,6.70
2019-05-13T01:59:43.618Z,6.70
2019-05-13T02:01:48.043Z,6.60
2019-05-13T02:03:54.550Z,6.60
2019-05-13T02:05:58.583Z,6.50
2019-05-13T02:08:04.487Z,6.50
2019-05-13T02:10:11.140Z,6.50
2019-05-13T02:12:15.470Z,6.40
2019-05-13T02:14:19.779Z,6.40
2019-05-13T02:16:24.457Z,6.40
2019-05-13T02:18:28.879Z,6.40
2019-05-13T02:20:33.602Z,6.40
2019-05-13T02:22:38.915Z,6.30
2019-05-13T02:24:45.010Z,6.20
2019-05-13T02:26:49.718Z,6.20
2019-05-13T02:28:54.240Z,6.10
2019-05-13T02:30:59.055Z,6.10
2019-05-13T02:33:03.500Z,6.10
2019-05-13T02:35:08.003Z,6.10
2019-05-13T02:37:13.005Z,6.20
2019-05-13T02:39:17.434Z,6.20
2019-05-13T02:41:22.823Z,6.10
2019-05-13T02:43:27.436Z,6.10
2019-05-13T02:45:33.515Z,6.10
2019-05-13T02:47:38.216Z,6.10
2019-05-13T02:49:43.242Z,6.10
2019-05-13T02:51:48.640Z,6.10
2019-05-13T02:53:53.052Z,6.10
2019-05-13T02:55:57.584Z,6.00
2019-05-13T02:58:03.267Z,6.00
2019-05-13T03:00:12.534Z,6.00
2019-05-13T03:02:15.373Z,6.00
2019-05-13T03:04:19.768Z,6.10
2019-05-13T03:06:24.103Z,6.00
2019-05-13T03:08:46.410Z,6.00
2019-05-13T03:10:34.798Z,6.00
2019-05-13T03:12:41.614Z,6.00
2019-05-13T03:14:48.525Z,5.90
2019-05-13T03:17:16.631Z,6.00
2019-05-13T03:19:22.466Z,5.90
2019-05-13T03:21:27.174Z,5.90
2019-05-13T03:23:32.944Z,5.90
2019-05-13T03:25:37.590Z,5.90
2019-05-13T03:27:42.946Z,5.80
2019-05-13T03:29:47.701Z,5.80
2019-05-13T03:31:55.817Z,5.80
2019-05-13T03:33:58.178Z,5.80
2019-05-13T03:36:06.298Z,5.80
2019-05-13T03:38:12.504Z,5.80
2019-05-13T03:40:15.252Z,5.80
2019-05-13T03:42:22.744Z,5.70
2019-05-13T03:44:32.506Z,5.70
2019-05-13T03:46:42.345Z,5.70
2019-05-13T03:48:47.357Z,5.70
2019-05-13T03:50:53.345Z,5.70
2019-05-13T03:52:58.395Z,5.70
2019-05-13T03:55:03.331Z,5.70
2019-05-13T03:57:12.423Z,5.70
2019-05-13T03:59:15.501Z,5.70
2019-05-13T04:01:22.370Z,5.60
2019-05-13T04:03:25.888Z,5.60
2019-05-13T04:05:33.499Z,5.60
2019-05-13T04:07:36.996Z,5.60
2019-05-13T04:09:42.429Z,5.60
2019-05-13T04:11:47.303Z,5.60
2019-05-13T04:13:52.997Z,5.50
2019-05-13T04:15:57.585Z,5.50
2019-05-13T04:18:05.765Z,5.60
2019-05-13T04:20:12.549Z,5.60
2019-05-13T04:22:16.696Z,5.60
2019-05-13T04:24:23.227Z,5.60
2019-05-13T04:26:28.375Z,5.70
2019-05-13T04:28:33.339Z,5.70
2019-05-13T04:30:37.770Z,5.70
2019-05-13T04:32:44.200Z,5.70
2019-05-13T04:34:48.376Z,5.70
2019-05-13T04:36:53.045Z,5.70
2019-05-13T04:38:58.062Z,5.70
2019-05-13T04:41:03.656Z,5.70
2019-05-13T04:43:08.609Z,5.70
2019-05-13T04:45:13.560Z,5.70
2019-05-13T04:47:18.774Z,5.70
2019-05-13T04:49:23.668Z,5.70
2019-05-13T04:51:28.863Z,5.70
2019-05-13T04:53:34.744Z,5.80
2019-05-13T04:55:42.532Z,5.80
2019-05-13T04:57:45.810Z,5.80
2019-05-13T04:59:51.704Z,5.70
2019-05-13T05:02:48.467Z,5.80
2019-05-13T05:04:54.760Z,5.80
2019-05-13T05:07:26.024Z,5.80
2019-05-13T05:10:17.674Z,5.90
2019-05-13T05:12:54.001Z,5.90
2019-05-13T05:15:19.417Z,5.90
2019-05-13T05:18:02.607Z,6.00
2019-05-13T05:20:15.071Z,6.00
2019-05-13T05:22:27.182Z,6.00
2019-05-13T05:25:04.628Z,6.00
2019-05-13T05:28:04.018Z,6.10
2019-05-13T05:30:42.422Z,6.20
2019-05-13T05:33:18.195Z,6.20
2019-05-13T05:36:01.694Z,6.10
2019-05-13T05:38:43.604Z,6.20
2019-05-13T05:40:51.054Z,6.30
2019-05-13T05:42:56.707Z,6.40
2019-05-13T05:45:02.748Z,6.50
2019-05-13T05:47:11.237Z,6.50
2019-05-13T05:49:17.598Z,6.60
2019-05-13T05:51:24.903Z,6.60
2019-05-13T05:53:31.979Z,6.70
2019-05-13T05:55:37.214Z,6.70
2019-05-13T05:57:42.958Z,6.70
2019-05-13T05:59:47.992Z,6.80
2019-05-13T06:01:55.240Z,6.80
2019-05-13T06:04:01.555Z,6.80
2019-05-13T06:06:06.556Z,6.90
2019-05-13T06:08:11.473Z,6.90
2019-05-13T06:10:16.327Z,7.00
2019-05-13T06:12:21.587Z,7.10
2019-05-13T06:14:26.003Z,7.10
2019-05-13T06:16:32.022Z,7.30
2019-05-13T06:18:37.185Z,7.40
2019-05-13T06:20:41.931Z,7.40
2019-05-13T06:22:46.558Z,7.50
2019-05-13T06:24:52.168Z,7.40
2019-05-13T06:26:57.187Z,7.40
2019-05-13T06:29:02.825Z,7.50
2019-05-13T06:31:07.256Z,7.50
2019-05-13T06:33:12.147Z,7.60
2019-05-13T06:35:16.656Z,7.70
2019-05-13T06:37:21.792Z,7.90
2019-05-13T06:39:26.608Z,7.90
2019-05-13T06:41:32.405Z,8.00
2019-05-13T06:43:36.878Z,8.00
2019-05-13T06:45:42.090Z,8.00
2019-05-13T06:47:46.713Z,8.10
2019-05-13T06:49:51.578Z,8.20
2019-05-13T06:51:56.471Z,8.30
2019-05-13T06:54:02.324Z,8.20
2019-05-13T06:56:06.966Z,8.20
2019-05-13T06:58:11.656Z,8.30
2019-05-13T07:00:16.529Z,8.40
2019-05-13T07:02:21.596Z,8.50
2019-05-13T07:04:26.487Z,8.50
2019-05-13T07:06:32.312Z,8.60
2019-05-13T07:08:36.890Z,8.60
2019-05-13T07:10:41.683Z,8.70
2019-05-13T07:12:46.127Z,8.70
2019-05-13T07:14:51.803Z,8.80
2019-05-13T07:16:56.393Z,8.80
2019-05-13T07:19:02.651Z,9.00
2019-05-13T07:21:06.821Z,9.10
2019-05-13T07:23:12.142Z,9.10
2019-05-13T07:25:16.914Z,9.30
2019-05-13T07:27:22.894Z,9.30
2019-05-13T07:29:28.294Z,9.40
2019-05-13T07:31:32.673Z,9.50
2019-05-13T07:33:37.106Z,9.50
2019-05-13T07:35:44.446Z,9.60
2019-05-13T07:37:48.420Z,9.60
2019-05-13T07:39:53.151Z,9.60
2019-05-13T07:41:57.950Z,9.50
2019-05-13T07:44:02.690Z,9.40
2019-05-13T07:46:07.192Z,9.40
2019-05-13T07:48:20.465Z,9.50
2019-05-13T07:50:21.901Z,9.60
2019-05-13T07:52:26.305Z,9.70
2019-05-13T07:54:32.984Z,9.70
2019-05-13T07:56:36.759Z,9.70
2019-05-13T07:58:41.906Z,9.80
2019-05-13T08:00:46.414Z,9.90
2019-05-13T08:02:52.352Z,9.80
2019-05-13T08:04:56.852Z,9.90
2019-05-13T08:07:02.132Z,10.00
2019-05-13T08:09:09.166Z,10.00
2019-05-13T08:11:13.581Z,10.00
2019-05-13T08:13:19.447Z,10.00
2019-05-13T08:15:23.817Z,10.00
2019-05-13T08:17:28.142Z,10.00
2019-05-13T08:19:33.028Z,9.80
2019-05-13T08:21:37.992Z,10.00
2019-05-13T08:23:42.452Z,10.10
2019-05-13T08:25:46.870Z,10.10
2019-05-13T08:27:51.904Z,10.20
2019-05-13T08:29:56.483Z,10.20
2019-05-13T08:32:02.954Z,10.30
2019-05-13T08:34:07.656Z,10.50
2019-05-13T08:36:12.403Z,10.60
2019-05-13T08:38:16.897Z,10.50
2019-05-13T08:40:23.459Z,10.50
2019-05-13T08:42:27.912Z,10.60
2019-05-13T08:44:32.766Z,10.70
2019-05-13T08:46:38.440Z,10.80
2019-05-13T08:48:43.088Z,10.80
2019-05-13T08:50:47.442Z,10.90
2019-05-13T08:52:51.872Z,11.10
2019-05-13T08:54:56.272Z,11.30
2019-05-13T08:57:02.825Z,11.30
2019-05-13T08:59:07.155Z,11.50
2019-05-13T09:01:12.343Z,11.30
2019-05-13T09:03:17.298Z,11.30
2019-05-13T09:05:21.671Z,11.40
2019-05-13T09:07:26.043Z,11.40
2019-05-13T09:09:31.431Z,11.60
2019-05-13T09:11:36.017Z,11.60
2019-05-13T09:13:42.356Z,11.60
2019-05-13T09:15:47.323Z,11.60
2019-05-13T09:17:52.404Z,11.70
2019-05-13T09:19:56.946Z,11.70
2019-05-13T09:22:02.921Z,11.80
2019-05-13T09:24:23.860Z,11.80
2019-05-13T09:26:13.980Z,11.80
2019-05-13T09:28:18.348Z,11.90
2019-05-13T09:30:26.776Z,11.90
2019-05-13T09:32:31.979Z,11.90
2019-05-13T09:34:36.773Z,12.00
2019-05-13T09:36:41.865Z,12.10
2019-05-13T09:38:46.306Z,12.10
2019-05-13T09:40:52.915Z,12.20
2019-05-13T09:42:56.878Z,12.20
2019-05-13T09:45:02.350Z,12.10
2019-05-13T09:47:07.019Z,12.10
2019-05-13T09:49:19.150Z,12.20
2019-05-13T09:51:17.891Z,12.30
2019-05-13T09:53:22.688Z,12.30
2019-05-13T09:55:29.298Z,12.30
2019-05-13T09:57:34.193Z,12.30
2019-05-13T09:59:38.580Z,12.40
2019-05-13T10:01:43.074Z,12.40
2019-05-13T10:03:54.833Z,12.40
2019-05-13T10:05:54.021Z,12.40
2019-05-13T10:07:58.502Z,12.50
2019-05-13T10:10:02.919Z,12.60
2019-05-13T10:12:08.131Z,12.70
2019-05-13T10:14:12.548Z,12.70
2019-05-13T10:16:17.228Z,12.70
2019-05-13T10:18:22.037Z,12.80
2019-05-13T10:20:47.758Z,12.80
2019-05-13T10:22:52.898Z,12.90
2019-05-13T10:24:57.840Z,12.90
2019-05-13T10:27:02.805Z,12.80
2019-05-13T10:29:11.679Z,12.90
2019-05-13T10:31:15.128Z,12.70
2019-05-13T10:33:22.150Z,12.80
2019-05-13T10:35:27.021Z,12.90
2019-05-13T10:37:32.055Z,13.10
2019-05-13T10:39:36.610Z,13.20
2019-05-13T10:41:42.360Z,13.10
2019-05-13T10:43:47.224Z,13.20
2019-05-13T10:45:52.575Z,13.30
2019-05-13T10:47:57.715Z,13.30
2019-05-13T10:50:03.035Z,13.40
2019-05-13T10:52:07.775Z,13.40
2019-05-13T10:54:12.226Z,13.40
2019-05-13T10:56:18.124Z,13.50
2019-05-13T10:58:23.582Z,13.60
2019-05-13T11:00:43.318Z,13.60
2019-05-13T11:02:47.855Z,13.60
2019-05-13T11:04:52.679Z,13.70
2019-05-13T11:06:57.320Z,13.60
2019-05-13T11:09:02.229Z,13.60
2019-05-13T11:11:06.938Z,13.70
2019-05-13T11:13:11.960Z,13.80
2019-05-13T11:15:16.389Z,13.80
2019-05-13T11:17:23.310Z,13.80
2019-05-13T11:19:33.373Z,13.80
2019-05-13T11:21:36.521Z,13.80
2019-05-13T11:23:41.074Z,14.00
2019-05-13T11:25:45.572Z,14.10
2019-05-13T11:27:52.468Z,14.10
2019-05-13T11:29:57.511Z,14.10
2019-05-13T11:32:02.757Z,14.20
2019-05-13T11:34:08.306Z,14.20
2019-05-13T11:36:18.679Z,14.10
2019-05-13T11:38:21.722Z,14.10
2019-05-13T11:40:25.505Z,14.20
2019-05-13T11:42:32.780Z,14.20
2019-05-13T11:44:36.361Z,14.20
2019-05-13T11:46:42.702Z,14.30
2019-05-13T11:48:47.393Z,14.50
2019-05-13T11:50:54.161Z,14.60
2019-05-13T11:52:57.813Z,14.50
2019-05-13T11:55:03.082Z,14.60
2019-05-13T11:57:08.465Z,14.60
2019-05-13T11:59:14.020Z,14.50
2019-05-13T12:01:22.599Z,14.50
2019-05-13T12:03:25.147Z,14.50
2019-05-13T12:05:32.650Z,14.50
2019-05-13T12:07:38.123Z,14.60
2019-05-13T12:09:42.734Z,14.60
2019-05-13T12:11:47.298Z,14.70
2019-05-13T12:13:52.769Z,14.70
2019-05-13T12:15:57.826Z,14.80
2019-05-13T12:18:02.952Z,14.80
2019-05-13T12:20:07.788Z,14.80
2019-05-13T12:22:13.167Z,14.80
2019-05-13T12:24:17.801Z,15.00
2019-05-13T12:26:23.758Z,15.00
2019-05-13T12:28:28.715Z,15.10
2019-05-13T12:30:33.819Z,15.00
2019-05-13T12:32:42.806Z,15.00
2019-05-13T12:34:46.316Z,15.00
2019-05-13T12:36:50.653Z,15.10
2019-05-13T12:38:55.085Z,15.00
2019-05-13T12:40:59.606Z,15.00
2019-05-13T12:43:04.238Z,15.00
2019-05-13T12:45:13.220Z,15.10
2019-05-13T12:47:15.074Z,15.00
2019-05-13T12:49:21.961Z,14.90
2019-05-13T12:51:26.064Z,15.00
2019-05-13T12:53:32.199Z,15.10
2019-05-13T12:55:36.490Z,14.90
2019-05-13T12:57:40.869Z,15.00
2019-05-13T12:59:45.286Z,15.20
2019-05-13T13:01:51.897Z,15.40
2019-05-13T13:03:56.032Z,15.40
2019-05-13T13:06:22.732Z,15.30
2019-05-13T13:08:24.679Z,15.20
2019-05-13T13:10:14.496Z,15.30
2019-05-13T13:12:24.221Z,15.40
2019-05-13T13:14:34.710Z,15.40
2019-05-13T13:16:34.631Z,15.40
2019-05-13T13:18:38.226Z,15.60
2019-05-13T13:20:42.683Z,15.70
2019-05-13T13:22:47.197Z,15.70
2019-05-13T13:24:56.734Z,15.70
2019-05-13T13:26:57.814Z,15.80
2019-05-13T13:29:02.838Z,15.80
2019-05-13T13:31:07.346Z,15.80
2019-05-13T13:33:15.126Z,15.80
2019-05-13T13:35:21.245Z,15.90
2019-05-13T13:37:25.278Z,15.90
2019-05-13T13:39:29.863Z,16.00
2019-05-13T13:41:35.883Z,16.00
2019-05-13T13:43:41.984Z,16.10
2019-05-13T13:46:07.642Z,16.30
2019-05-13T13:48:03.149Z,16.40
2019-05-13T13:50:03.467Z,16.40
2019-05-13T13:52:07.924Z,16.40
2019-05-13T13:54:12.513Z,16.30
2019-05-13T13:56:16.939Z,16.10
2019-05-13T13:58:25.483Z,16.10
2019-05-13T14:00:38.152Z,16.00
2019-05-13T14:02:37.045Z,16.00
2019-05-13T14:04:42.943Z,16.10
2019-05-13T14:08:52.590Z,16.00
2019-05-13T14:11:02.103Z,16.00
2019-05-13T14:13:07.127Z,16.10
2019-05-13T14:15:12.760Z,16.40
2019-05-13T14:17:17.187Z,16.40
2019-05-13T14:19:22.249Z,16.30
2019-05-13T14:21:28.012Z,16.30
2019-05-13T14:23:37.561Z,16.40
2019-05-13T14:25:42.028Z,16.30
2019-05-13T14:27:46.728Z,16.40
2019-05-13T14:29:52.679Z,16.40
2019-05-13T14:31:57.288Z,16.30
2019-05-13T14:34:03.658Z,16.30
2019-05-13T14:36:12.102Z,16.30
2019-05-13T14:38:15.503Z,16.40
2019-05-13T14:40:22.253Z,16.30
2019-05-13T14:42:26.417Z,16.30
2019-05-13T14:44:32.506Z,16.40
2019-05-13T14:46:47.117Z,16.40
2019-05-13T14:48:43.454Z,16.40
2019-05-13T14:50:48.347Z,16.50
2019-05-13T14:52:52.756Z,16.50
2019-05-13T14:54:57.261Z,16.50
2019-05-13T14:57:02.557Z,16.50
2019-05-13T14:59:07.064Z,16.40
2019-05-13T15:01:18.764Z,16.50
2019-05-13T15:03:17.764Z,16.50
2019-05-13T15:05:22.166Z,16.50
2019-05-13T15:07:26.991Z,16.60
2019-05-13T15:09:31.604Z,16.70
2019-05-13T15:11:36.407Z,16.70
2019-05-13T15:13:42.567Z,16.70
2019-05-13T15:15:47.567Z,16.70
2019-05-13T15:17:57.242Z,16.60
2019-05-13T15:20:04.721Z,16.70
2019-05-13T15:22:10.946Z,16.70
2019-05-13T15:24:15.937Z,16.70
2019-05-13T15:26:22.241Z,16.70
2019-05-13T15:28:28.021Z,16.70
2019-05-13T15:30:32.849Z,16.90
2019-05-13T15:32:37.324Z,16.90
2019-05-13T15:34:42.881Z,16.90
2019-05-13T15:36:54.316Z,16.90
2019-05-13T15:39:01.229Z,17.00
2019-05-13T15:41:05.128Z,17.10
2019-05-13T15:43:11.691Z,17.20
2019-05-13T15:45:15.752Z,17.10
2019-05-13T15:47:24.130Z,17.10
2019-05-13T15:49:26.330Z,17.20
2019-05-13T15:51:32.089Z,17.30
2019-05-13T15:53:36.659Z,17.20
2019-05-13T15:55:41.137Z,17.30
2019-05-13T15:57:46.079Z,17.50
2019-05-13T15:59:51.816Z,17.70
2019-05-13T16:02:01.356Z,18.00
2019-05-13T16:04:05.637Z,18.20
2019-05-13T16:06:10.305Z,18.30
2019-05-13T16:08:14.891Z,18.20
2019-05-13T16:10:19.647Z,18.20
2019-05-13T16:12:24.210Z,18.40
2019-05-13T16:14:31.499Z,18.50
2019-05-13T16:16:36.976Z,18.60
2019-05-13T16:18:43.786Z,18.30
2019-05-13T16:20:48.917Z,18.30
2019-05-13T16:22:53.537Z,18.50
2019-05-13T16:25:02.575Z,18.50
2019-05-13T16:27:07.713Z,18.30
2019-05-13T16:29:12.791Z,18.40
2019-05-13T16:31:17.421Z,18.20
2019-05-13T16:33:22.955Z,18.00
2019-05-13T16:35:27.456Z,17.80
2019-05-13T16:37:32.327Z,17.80
2019-05-13T16:39:36.832Z,17.80
2019-05-13T16:41:47.250Z,17.90
2019-05-13T16:43:52.885Z,18.10
2019-05-13T16:45:57.498Z,18.00
2019-05-13T16:48:04.163Z,18.00
2019-05-13T16:50:11.303Z,18.00
2019-05-13T16:52:15.382Z,17.70
2019-05-13T16:54:21.986Z,17.40
2019-05-13T16:56:30.251Z,17.80
2019-05-13T16:58:32.745Z,18.00
2019-05-13T17:00:37.125Z,18.20
2019-05-13T17:02:42.275Z,18.30
2019-05-13T17:04:46.870Z,18.90
2019-05-13T17:06:53.131Z,18.80
2019-05-13T17:08:58.517Z,19.20
2019-05-13T17:11:02.908Z,19.60
2019-05-13T17:13:07.323Z,19.80
2019-05-13T17:15:12.387Z,20.00
2019-05-13T17:17:17.132Z,19.60
2019-05-13T17:19:21.528Z,19.60
2019-05-13T17:21:25.907Z,20.10
2019-05-13T17:23:30.275Z,20.10
2019-05-13T17:25:34.724Z,20.00
2019-05-13T17:27:39.467Z,20.00
2019-05-13T17:29:43.992Z,19.70
2019-05-13T17:31:48.378Z,19.20
2019-05-13T17:33:53.148Z,19.30
2019-05-13T17:35:57.643Z,19.20
2019-05-13T17:38:03.083Z,19.30
2019-05-13T17:40:07.621Z,19.00
2019-05-13T17:42:12.340Z,18.90
2019-05-13T17:44:16.787Z,18.90
2019-05-13T17:46:21.854Z,18.60
2019-05-13T17:48:29.490Z,17.90
2019-05-13T17:50:32.695Z,17.60
2019-05-13T17:52:37.249Z,17.40
2019-05-13T17:54:42.783Z,17.30
2019-05-13T17:56:47.439Z,17.20
2019-05-13T17:58:52.226Z,17.10
2019-05-13T18:00:57.065Z,16.90
2019-05-13T18:03:01.953Z,16.70
2019-05-13T18:05:11.875Z,16.40
2019-05-13T18:07:16.176Z,16.20
2019-05-13T18:09:22.367Z,16.00
2019-05-13T18:11:27.155Z,15.90
2019-05-13T18:13:31.613Z,15.80
2019-05-13T18:15:36.886Z,15.70
2019-05-13T18:17:41.981Z,15.70
2019-05-13T18:19:46.402Z,15.70
2019-05-13T18:21:51.613Z,15.70
2019-05-13T18:23:56.443Z,15.60
2019-05-13T18:26:01.937Z,15.50
2019-05-13T18:28:07.041Z,15.60
2019-05-13T18:30:12.057Z,15.50
2019-05-13T18:32:16.475Z,15.40
2019-05-13T18:34:21.612Z,15.20
2019-05-13T18:36:26.322Z,15.20
2019-05-13T18:38:35.306Z,15.20
2019-05-13T18:40:42.008Z,15.10
2019-05-13T18:42:47.265Z,15.00
2019-05-13T18:44:53.771Z,15.00
2019-05-13T18:47:01.570Z,15.00
2019-05-13T18:49:07.830Z,14.90
2019-05-13T18:51:13.980Z,14.90
2019-05-13T18:53:21.362Z,14.80
2019-05-13T18:55:26.054Z,14.70
2019-05-13T18:57:32.037Z,14.70
2019-05-13T18:59:36.578Z,14.50
2019-05-13T19:01:41.088Z,14.50
2019-05-13T19:03:46.519Z,14.50
2019-05-13T19:05:53.829Z,14.40
2019-05-13T19:07:59.189Z,14.30
2019-05-13T19:10:04.135Z,14.20
2019-05-13T19:12:11.448Z,14.20
2019-05-13T19:14:17.895Z,14.10
2019-05-13T19:16:24.536Z,14.10
2019-05-13T19:18:32.001Z,14.00
2019-05-13T19:20:41.749Z,14.00
2019-05-13T19:22:48.783Z,14.00
2019-05-13T19:24:53.920Z,13.90
2019-05-13T19:27:03.098Z,13.90
2019-05-13T19:29:34.988Z,13.80
2019-05-13T19:31:42.541Z,13.70
2019-05-13T19:33:48.164Z,13.70
2019-05-13T19:35:55.649Z,13.60
2019-05-13T19:38:04.169Z,13.60
2019-05-13T19:40:15.502Z,13.50
2019-05-13T19:42:24.736Z,13.40
2019-05-13T19:44:31.536Z,13.40
2019-05-13T19:46:37.518Z,13.30
2019-05-13T19:48:56.373Z,13.30
2019-05-13T19:51:05.302Z,13.30
2019-05-13T19:53:12.859Z,13.20
2019-05-13T19:55:19.281Z,13.20
2019-05-13T19:57:31.621Z,13.10
2019-05-13T19:59:37.475Z,13.00
2019-05-13T20:01:51.650Z,13.10
2019-05-13T20:04:02.370Z,13.00
2019-05-13T20:06:12.087Z,13.00
2019-05-13T20:08:24.561Z,12.90
2019-05-13T20:10:32.177Z,12.90
2019-05-13T20:12:41.927Z,12.90
2019-05-13T20:14:46.844Z,13.00
2019-05-13T20:16:52.525Z,12.90
2019-05-13T20:19:01.306Z,12.80
2019-05-13T20:21:10.344Z,12.80
2019-05-13T20:34:15.627Z,12.50
2019-05-13T20:36:51.583Z,12.50
2019-05-13T20:42:24.840Z,12.30
2019-05-13T20:48:16.565Z,12.20
2019-05-13T20:50:21.808Z,12.20
2019-05-13T20:52:28.270Z,12.10
2019-05-13T20:54:34.803Z,12.00
2019-05-13T20:56:42.001Z,12.00
2019-05-13T20:58:48.405Z,12.00
2019-05-13T21:00:55.074Z,12.00
2019-05-13T21:03:02.842Z,12.10
2019-05-13T21:05:08.572Z,12.00
2019-05-13T21:07:25.808Z,12.00
2019-05-13T21:09:32.505Z,12.00
2019-05-13T21:11:37.399Z,12.00
2019-05-13T21:13:42.262Z,11.90
2019-05-13T21:15:47.570Z,11.90
2019-05-13T21:17:52.419Z,11.80
2019-05-13T21:19:59.811Z,11.80
2019-05-13T21:22:03.513Z,11.80
2019-05-13T21:24:08.264Z,11.70
2019-05-13T21:26:15.399Z,11.60
2019-05-13T21:28:18.979Z,11.60
2019-05-13T21:30:23.392Z,11.60
2019-05-13T21:32:27.798Z,11.60
2019-05-13T21:34:33.151Z,11.50
2019-05-13T21:36:37.677Z,11.40
2019-05-13T21:38:42.150Z,11.40
2019-05-13T21:40:46.695Z,11.30
2019-05-13T21:42:52.663Z,11.30
2019-05-13T21:44:57.437Z,11.30
2019-05-13T21:47:02.251Z,11.30
2019-05-13T21:49:07.226Z,11.20
2019-05-13T21:51:13.558Z,11.20
2019-05-13T21:53:18.265Z,11.10
2019-05-13T21:55:22.824Z,11.10
2019-05-13T21:57:27.286Z,11.10
2019-05-13T21:59:33.022Z,11.00
2019-05-13T22:01:37.983Z,10.90
2019-05-13T22:03:42.566Z,10.90
2019-05-13T22:05:47.193Z,10.90
2019-05-13T22:07:52.355Z,10.90
2019-05-13T22:09:56.756Z,10.90
2019-05-13T22:12:01.795Z,10.90
2019-05-13T22:14:06.528Z,10.90
2019-05-13T22:16:11.289Z,10.80
2019-05-13T22:18:15.753Z,10.90
2019-05-13T22:20:21.384Z,10.80
2019-05-13T22:22:26.365Z,10.70
2019-05-13T22:24:32.182Z,10.60
2019-05-13T22:26:36.836Z,10.60
2019-05-13T22:28:41.728Z,10.60
2019-05-13T22:30:46.654Z,10.50
2019-05-13T22:32:52.319Z,10.50
2019-05-13T22:34:56.799Z,10.50
2019-05-13T22:37:02.517Z,10.40
2019-05-13T22:39:07.830Z,10.40
2019-05-13T22:41:12.706Z,10.30
2019-05-13T22:43:18.077Z,10.20
2019-05-13T22:45:22.775Z,10.30
2019-05-13T22:47:27.153Z,10.20
2019-05-13T22:49:31.570Z,10.20
2019-05-13T22:51:36.016Z,10.20
2019-05-13T22:53:42.206Z,10.20
2019-05-13T22:55:46.724Z,10.10
2019-05-13T22:57:51.171Z,10.10
2019-05-13T22:59:55.614Z,10.00
2019-05-13T23:02:01.871Z,10.00
2019-05-13T23:04:06.331Z,10.00
2019-05-13T23:06:12.112Z,10.00
2019-05-13T23:08:16.602Z,10.00
2019-05-13T23:10:22.481Z,10.00
2019-05-13T23:12:27.143Z,9.90
2019-05-13T23:14:31.621Z,9.80
2019-05-13T23:16:36.839Z,9.90
2019-05-13T23:18:42.066Z,9.80
2019-05-13T23:20:51.456Z,9.80
2019-05-13T23:23:00.850Z,9.90
2019-05-13T23:25:13.612Z,9.80
2019-05-13T23:27:18.281Z,9.70
2019-05-13T23:29:26.266Z,9.70
2019-05-13T23:31:31.427Z,9.70
2019-05-13T23:33:37.888Z,9.70
2019-05-13T23:35:45.861Z,9.60
2019-05-13T23:37:51.006Z,9.60
2019-05-13T23:39:55.699Z,9.60
2019-05-13T23:42:01.418Z,9.60
2019-05-13T23:44:21.723Z,9.50
2019-05-13T23:46:15.302Z,9.50
2019-05-13T23:48:21.563Z,9.50
2019-05-13T23:50:25.922Z,9.40
2019-05-13T23:52:31.234Z,9.30
2019-05-13T23:54:35.783Z,9.30
2019-05-13T23:56:41.668Z,9.30
2019-05-13T23:58:46.552Z,9.30
